Leshara, Nebraska
Current Conditions -  °F | °C
As of 6:15 AM on Monday 20 Oct 2014 (Local Time) from KFET Reporting Station
Clear Clear  
Wind Chill: 39°   Ceiling: Unl
Heat Index: 43°   Visibility: 10mi
Dew Point: 40°   Wind: 6mph
Humidity: 90%   Direction: 280°W
Pressure: 30.04"   Gusts: NA
Location:  41.33°N, 96.43°W
Report Text: KFET 201115Z AUTO 28005KT 10SM CLR 06/05 A3004 RMK AO2 T00610046
Loading
Personal Weather Stations






























Interactive Weather Map
Tropical Storm Tracking
New forecast layout! Learn more

10-Day Weather Forecast

Advertisements
Track Severe Weather on mobile